Time;durP1;ratioP1;P1;durP2;ratioP2;P2;SDS_P1;SDS_P2;PMS_P1;PMS_P2;Temp;Humidity;BMP_temperature;BMP_pressure;BME280_temperature;BME280_humidity;BME280_pressure;Samples;Min_cycle;Max_cycle;Signal;HPM_P1;HPM_P2
2022/06/20 00:00:21;;;;;;;1999.90;999.90;;;15.90;99.90;;;;;;5069940;28;20457;-69
2022/06/20 00:02:51;;;;;;;1999.90;999.90;;;16.00;99.90;;;;;;5072200;28;20967;-69
2022/06/20 00:05:20;;;;;;;1999.90;999.90;;;16.00;99.90;;;;;;5072324;28;20473;-69
2022/06/20 00:07:48;;;;;;;1999.90;999.90;;;15.90;99.90;;;;;;5072337;28;20515;-69
2022/06/20 00:10:16;;;;;;;1999.90;999.90;;;15.90;99.90;;;;;;5071166;28;20538;-69
2022/06/20 00:12:44;;;;;;;1999.90;999.90;;;15.90;99.90;;;;;;5072094;28;20941;-70
2022/06/20 00:15:20;;;;;;;1999.90;999.90;;;16.00;99.90;;;;;;5072152;28;20469;-69
2022/06/20 00:17:48;;;;;;;1999.90;999.90;;;16.10;99.90;;;;;;5071844;28;20486;-69
2022/06/20 00:20:16;;;;;;;1999.90;999.90;;;15.90;99.90;;;;;;5072148;28;20498;-68
2022/06/20 00:22:43;;;;;;;1999.90;999.90;;;15.90;99.90;;;;;;5070609;28;20969;-69
2022/06/20 00:25:10;;;;;;;1999.90;999.90;;;15.90;99.90;;;;;;5072160;28;20486;-69
2022/06/20 00:27:37;;;;;;;1999.90;999.90;;;15.70;99.90;;;;;;5072314;28;20453;-70
2022/06/20 00:30:05;;;;;;;1999.90;999.90;;;15.60;99.90;;;;;;5072795;28;20481;-69
2022/06/20 00:32:31;;;;;;;1999.90;999.90;;;15.50;99.90;;;;;;5073288;28;20950;-70
2022/06/20 00:35:00;;;;;;;1999.90;999.90;;;15.40;99.90;;;;;;5071305;28;20997;-70
2022/06/20 00:37:27;;;;;;;1999.90;999.90;;;15.50;99.90;;;;;;5072448;28;20452;-69
2022/06/20 00:39:54;;;;;;;1999.90;999.90;;;15.50;99.90;;;;;;5072382;28;20495;-69
2022/06/20 00:42:21;;;;;;;1999.90;999.90;;;15.00;99.90;;;;;;5072244;28;20441;-68
2022/06/20 00:44:50;;;;;;;1999.90;999.90;;;15.70;99.90;;;;;;5071873;28;20538;-69
2022/06/20 00:47:21;;;;;;;1999.90;999.90;;;15.50;99.90;;;;;;5070217;28;20461;-69
2022/06/20 00:49:54;;;;;;;1999.90;999.90;;;15.60;99.90;;;;;;5071540;28;20845;-70
2022/06/20 00:52:28;;;;;;;1999.90;999.90;;;15.60;99.90;;;;;;5072697;28;20429;-69
2022/06/20 00:54:59;;;;;;;1999.90;999.90;;;15.50;99.90;;;;;;5073078;28;20515;-68
2022/06/20 00:57:30;;;;;;;1999.90;999.90;;;15.40;99.90;;;;;;5072200;28;20510;-70
2022/06/20 01:00:05;;;;;;;1999.90;999.90;;;15.50;99.90;;;;;;5065453;28;20492;-70
2022/06/20 01:02:39;;;;;;;1999.90;999.90;;;15.60;99.90;;;;;;5071129;28;20453;-69
2022/06/20 01:05:10;;;;;;;1999.90;999.90;;;15.70;99.90;;;;;;5096768;22;20495;-70
2022/06/20 01:07:43;;;;;;;1999.90;999.90;;;15.90;99.90;;;;;;5071114;28;20847;-70
2022/06/20 01:10:11;;;;;;;1999.90;999.90;;;15.90;99.90;;;;;;5070612;28;20477;-69
2022/06/20 01:12:47;;;;;;;1999.90;999.90;;;15.90;99.90;;;;;;5072537;28;20461;-69
2022/06/20 01:15:23;;;;;;;1999.90;999.90;;;15.70;99.90;;;;;;5071639;28;20465;-69
2022/06/20 01:17:51;;;;;;;1999.90;999.90;;;15.70;99.90;;;;;;5055004;28;20460;-69
2022/06/20 01:20:23;;;;;;;1999.90;999.90;;;15.60;99.90;;;;;;5055263;28;20520;-69
2022/06/20 01:23:03;;;;;;;1999.90;999.90;;;15.60;99.90;;;;;;5053991;28;20545;-70
2022/06/20 01:26:02;;;;;;;1999.90;999.90;;;15.70;99.90;;;;;;5046945;28;20500;-69
2022/06/20 01:28:37;;;;;;;1999.90;999.90;;;15.70;99.90;;;;;;5055148;28;20438;-69
2022/06/20 01:31:05;;;;;;;1999.90;999.90;;;15.70;99.90;;;;;;5055029;28;20477;-69
2022/06/20 01:33:32;;;;;;;1999.90;999.90;;;15.70;99.90;;;;;;5054976;28;20446;-69
2022/06/20 01:38:45;;;;;;;1999.90;999.90;;;15.50;99.90;;;;;;5047639;28;20468;-69
2022/06/20 01:44:01;;;;;;;1999.90;999.90;;;15.40;99.90;;;;;;5053111;28;20588;-69
2022/06/20 01:46:30;;;;;;;1999.90;999.90;;;15.50;99.90;;;;;;5054716;28;20466;-69
2022/06/20 01:49:03;;;;;;;1999.90;999.90;;;15.70;99.90;;;;;;5054404;28;20442;-70
2022/06/20 01:51:37;;;;;;;1999.90;999.90;;;15.70;99.90;;;;;;5054685;28;20485;-70
2022/06/20 01:54:04;;;;;;;1999.90;999.90;;;15.90;99.90;;;;;;5046803;28;20493;-72
2022/06/20 01:56:31;;;;;;;1999.90;999.90;;;15.90;99.90;;;;;;5053933;28;20462;-70
2022/06/20 01:59:02;;;;;;;1999.90;999.90;;;15.90;99.90;;;;;;5054608;28;20564;-71
2022/06/20 02:01:33;;;;;;;1999.90;999.90;;;15.90;99.90;;;;;;5054695;28;20488;-69
2022/06/20 02:04:02;;;;;;;1999.90;999.90;;;15.60;99.90;;;;;;5054559;28;20434;-70
2022/06/20 02:06:30;;;;;;;1999.90;999.90;;;15.60;99.90;;;;;;5050210;28;20501;-71
2022/06/20 02:08:58;;;;;;;1999.90;999.90;;;15.80;99.90;;;;;;5049009;28;20801;-70
2022/06/20 02:11:28;;;;;;;1999.90;999.90;;;15.90;99.90;;;;;;5054141;28;20473;-70
2022/06/20 02:13:59;;;;;;;1999.90;999.90;;;15.80;99.90;;;;;;5054468;28;20492;-69
2022/06/20 02:16:28;;;;;;;1999.90;999.90;;;15.90;99.90;;;;;;5050642;28;21029;-69
2022/06/20 02:19:00;;;;;;;1999.90;999.90;;;16.10;99.90;;;;;;5048385;28;20920;-70
2022/06/20 02:21:31;;;;;;;1999.90;999.90;;;16.20;99.90;;;;;;5054246;28;20477;-71
2022/06/20 02:24:03;;;;;;;1999.90;999.90;;;16.20;99.90;;;;;;5053339;28;20426;-72
2022/06/20 02:26:31;;;;;;;1999.90;999.90;;;16.20;99.90;;;;;;5054284;28;20466;-70
2022/06/20 02:29:05;;;;;;;1999.90;999.90;;;16.20;99.90;;;;;;5046424;28;20581;-71
2022/06/20 02:31:31;;;;;;;1999.90;999.90;;;16.30;99.90;;;;;;5053303;28;20504;-72
2022/06/20 02:33:58;;;;;;;1999.90;999.90;;;16.20;99.90;;;;;;5053962;28;20450;-71
2022/06/20 02:36:25;;;;;;;1999.90;999.90;;;16.20;99.90;;;;;;5053754;28;20466;-71
2022/06/20 02:38:52;;;;;;;1999.90;999.90;;;16.20;99.90;;;;;;5054041;28;20481;-71
2022/06/20 02:41:23;;;;;;;1999.90;999.90;;;16.30;99.90;;;;;;5052542;28;20466;-70
2022/06/20 02:43:59;;;;;;;1999.90;999.90;;;16.20;99.90;;;;;;5053817;28;20451;-71
2022/06/20 02:46:31;;;;;;;1999.90;999.90;;;16.20;99.90;;;;;;5053524;28;20470;-71
2022/06/20 02:49:00;;;;;;;1999.90;999.90;;;16.10;99.90;;;;;;5053433;28;20520;-72
2022/06/20 02:51:31;;;;;;;1999.90;999.90;;;16.10;99.90;;;;;;5044039;28;20509;-71
2022/06/20 02:54:00;;;;;;;1999.90;999.90;;;16.00;99.90;;;;;;5053607;28;20450;-71
2022/06/20 02:56:31;;;;;;;1999.90;999.90;;;16.00;99.90;;;;;;5053567;28;20470;-74
2022/06/20 02:59:01;;;;;;;1999.90;999.90;;;16.00;99.90;;;;;;5053585;28;20500;-72
2022/06/20 03:01:37;;;;;;;1999.90;999.90;;;16.00;99.90;;;;;;5053366;28;20438;-71
2022/06/20 03:04:05;;;;;;;1999.90;999.90;;;16.20;99.90;;;;;;5052502;28;20523;-71
2022/06/20 03:06:36;;;;;;;1999.90;999.90;;;16.00;99.90;;;;;;5053090;28;20490;-71
2022/06/20 03:09:04;;;;;;;1999.90;999.90;;;16.10;99.90;;;;;;5053194;28;20477;-72
2022/06/20 03:11:35;;;;;;;1999.90;999.90;;;16.10;99.90;;;;;;5053079;28;20481;-71
2022/06/20 03:14:06;;;;;;;1999.90;999.90;;;16.20;99.90;;;;;;5052197;28;20462;-69
2022/06/20 03:16:35;;;;;;;1999.90;999.90;;;16.30;99.90;;;;;;5044652;28;20466;-69
2022/06/20 03:19:03;;;;;;;1999.90;999.90;;;16.30;99.90;;;;;;5053017;28;20450;-69
2022/06/20 03:21:36;;;;;;;1999.90;999.90;;;16.20;99.90;;;;;;5052828;28;20504;-69
2022/06/20 03:24:04;;;;;;;1999.90;999.90;;;16.10;99.90;;;;;;5052869;28;20431;-69
2022/06/20 03:26:31;;;;;;;1999.90;999.90;;;16.00;99.90;;;;;;5049424;28;20903;-69
2022/06/20 03:28:59;;;;;;;1999.90;999.90;;;15.80;99.90;;;;;;5047596;28;20523;-69
2022/06/20 03:31:27;;;;;;;1999.90;999.90;;;15.70;99.90;;;;;;5052654;28;20482;-69
2022/06/20 03:33:55;;;;;;;1999.90;999.90;;;15.70;99.90;;;;;;5052730;28;20841;-69
2022/06/20 03:36:25;;;;;;;1999.90;999.90;;;15.70;99.90;;;;;;5051948;28;20472;-69
2022/06/20 03:38:52;;;;;;;1999.90;999.90;;;15.70;99.90;;;;;;5045308;28;20967;-69
2022/06/20 03:41:24;;;;;;;1999.90;999.90;;;15.70;99.90;;;;;;5050209;28;20488;-69
2022/06/20 03:43:53;;;;;;;1999.90;999.90;;;15.80;99.90;;;;;;5052581;28;20849;-69
2022/06/20 03:46:24;;;;;;;1999.90;999.90;;;15.80;99.90;;;;;;5052517;28;20478;-69
2022/06/20 03:48:59;;;;;;;1999.90;999.90;;;15.70;99.90;;;;;;5052771;28;20438;-66
2022/06/20 03:51:31;;;;;;;1999.90;999.90;;;15.50;99.90;;;;;;5042643;28;20470;-67
2022/06/20 03:54:03;;;;;;;1999.90;999.90;;;15.50;99.90;;;;;;5052678;28;20450;-67
2022/06/20 03:56:35;;;;;;;1999.90;999.90;;;15.50;99.90;;;;;;5052374;28;20880;-69
2022/06/20 03:59:08;;;;;;;1999.90;999.90;;;15.50;99.90;;;;;;5052306;28;20541;-69
2022/06/20 04:01:41;;;;;;;1999.90;999.90;;;15.50;99.90;;;;;;5042197;28;20536;-70
2022/06/20 04:04:17;;;;;;;1999.90;999.90;;;15.40;99.90;;;;;;5052491;28;20529;-70
2022/06/20 04:06:48;;;;;;;1999.90;999.90;;;15.40;99.90;;;;;;5041236;28;20493;-68
2022/06/20 04:12:29;;;;;;;1999.90;999.90;;;15.00;99.90;;;;;;4990959;28;20499;-68
2022/06/20 04:15:00;;;;;;;1999.90;999.90;;;14.90;99.90;;;;;;5057091;28;20461;-69
2022/06/20 04:20:38;;;;;;;1999.90;999.90;;;14.70;99.90;;;;;;5075422;28;20478;-69
2022/06/20 04:23:12;;;;;;;1999.90;999.90;;;14.60;99.90;;;;;;5073434;28;20426;-68
2022/06/20 04:25:45;;;;;;;1999.90;999.90;;;14.60;99.90;;;;;;5068206;28;20496;-69
2022/06/20 04:28:17;;;;;;;1999.90;999.90;;;14.50;99.90;;;;;;5074653;28;20430;-71
2022/06/20 04:30:49;;;;;;;1999.90;999.90;;;14.40;99.90;;;;;;5069600;28;20450;-67
2022/06/20 04:33:20;;;;;;;1999.90;999.90;;;14.40;99.90;;;;;;5072399;28;20442;-67
2022/06/20 04:35:58;;;;;;;1999.90;999.90;;;14.30;99.90;;;;;;5065573;28;20490;-69
2022/06/20 04:38:30;;;;;;;1999.90;999.90;;;14.30;99.90;;;;;;5067589;28;20426;-66
2022/06/20 04:41:11;;;;;;;1999.90;999.90;;;14.30;99.90;;;;;;5066338;28;20497;-67
2022/06/20 04:43:43;;;;;;;1999.90;999.90;;;14.30;99.90;;;;;;5052767;28;20439;-67
2022/06/20 04:46:18;;;;;;;1999.90;999.90;;;14.30;99.90;;;;;;5051227;28;21063;-67
2022/06/20 04:48:47;;;;;;;1999.90;999.90;;;14.30;99.90;;;;;;5037068;28;20492;-68
2022/06/20 04:51:19;;;;;;;1999.90;999.90;;;14.30;99.90;;;;;;5052221;28;20488;-67
2022/06/20 04:53:48;;;;;;;1999.90;999.90;;;14.30;99.90;;;;;;5054167;28;21001;-67
2022/06/20 04:56:23;;;;;;;1999.90;999.90;;;14.30;99.90;;;;;;5052008;28;20467;-67
2022/06/20 04:58:53;;;;;;;1999.90;999.90;;;14.30;99.90;;;;;;5045504;28;20565;-67
2022/06/20 05:01:21;;;;;;;1999.90;999.90;;;14.30;99.90;;;;;;5049713;28;20439;-67
2022/06/20 05:03:55;;;;;;;1999.90;999.90;;;14.30;99.90;;;;;;5051801;28;20814;-67
2022/06/20 05:06:25;;;;;;;1999.90;999.90;;;14.40;99.90;;;;;;5051792;28;20489;-67
2022/06/20 05:08:55;;;;;;;1999.90;999.90;;;14.50;99.90;;;;;;5052013;28;20484;-67
2022/06/20 05:11:26;;;;;;;1999.90;999.90;;;14.50;99.90;;;;;;5043869;28;21051;-67
2022/06/20 05:13:58;;;;;;;1999.90;999.90;;;14.70;99.90;;;;;;5041332;28;20694;-67
2022/06/20 05:16:29;;;;;;;1999.90;999.90;;;14.80;99.90;;;;;;5051120;28;20472;-67
2022/06/20 05:19:00;;;;;;;1999.90;999.90;;;14.70;99.90;;;;;;5051324;28;20586;-67
2022/06/20 05:21:32;;;;;;;1999.90;999.90;;;14.60;99.90;;;;;;5042242;28;20463;-67
2022/06/20 05:24:04;;;;;;;1999.90;999.90;;;14.50;99.90;;;;;;5051532;28;20501;-67
2022/06/20 05:26:34;;;;;;;1999.90;999.90;;;14.70;99.90;;;;;;5051735;28;20470;-67
2022/06/20 05:29:05;;;;;;;1999.90;999.90;;;14.70;99.90;;;;;;5051919;28;20454;-67
2022/06/20 05:31:35;;;;;;;1999.90;999.90;;;14.60;99.90;;;;;;5051270;28;20482;-67
2022/06/20 05:34:07;;;;;;;1999.90;999.90;;;14.70;99.90;;;;;;5043581;28;20805;-68
2022/06/20 05:36:43;;;;;;;1999.90;999.90;;;14.70;99.90;;;;;;5050920;28;20528;-67
2022/06/20 05:39:19;;;;;;;1999.90;999.90;;;14.70;99.90;;;;;;5049366;28;21016;-68
2022/06/20 05:41:47;;;;;;;1999.90;999.90;;;14.70;99.90;;;;;;5031434;28;20909;-67
2022/06/20 05:44:14;;;;;;;1999.90;999.90;;;14.70;99.90;;;;;;5037801;28;20517;-69
2022/06/20 05:46:44;;;;;;;1999.90;999.90;;;14.80;99.90;;;;;;5050882;28;20970;-68
2022/06/20 05:49:13;;;;;;;1999.90;999.90;;;14.60;99.90;;;;;;5051138;28;20496;-68
2022/06/20 05:51:43;;;;;;;1999.90;999.90;;;14.70;99.90;;;;;;5051464;28;20528;-68
2022/06/20 05:54:14;;;;;;;1999.90;999.90;;;14.80;99.90;;;;;;5050203;28;20942;-68
2022/06/20 05:56:43;;;;;;;1999.90;999.90;;;14.90;99.90;;;;;;5051191;28;20501;-68
2022/06/20 05:59:26;;;;;;;1999.90;999.90;;;14.90;99.90;;;;;;5043007;28;20524;-70
2022/06/20 06:01:55;;;;;;;1999.90;999.90;;;14.70;99.90;;;;;;5049027;28;20449;-68
2022/06/20 06:04:30;;;;;;;1999.90;999.90;;;14.70;99.90;;;;;;5054094;28;20499;-70
2022/06/20 06:07:03;;;;;;;1999.90;999.90;;;14.70;99.90;;;;;;5045957;28;20477;-68
2022/06/20 06:09:38;;;;;;;1999.90;999.90;;;14.70;99.90;;;;;;5054343;28;20438;-68
2022/06/20 06:12:08;;;;;;;1999.90;999.90;;;14.60;99.90;;;;;;5054398;28;20485;-68
2022/06/20 06:14:41;;;;;;;1999.90;999.90;;;14.60;99.90;;;;;;5054474;28;20972;-68
2022/06/20 06:17:13;;;;;;;1999.90;999.90;;;14.70;99.90;;;;;;5052027;28;20509;-68
2022/06/20 06:19:43;;;;;;;1999.90;999.90;;;14.60;99.90;;;;;;5046311;28;20473;-68
2022/06/20 06:22:17;;;;;;;1999.90;999.90;;;14.70;99.90;;;;;;5054410;28;20942;-68
2022/06/20 06:24:47;;;;;;;1999.90;999.90;;;14.60;99.90;;;;;;5054520;28;20828;-68
2022/06/20 06:27:20;;;;;;;1999.90;999.90;;;14.60;99.90;;;;;;5054696;28;20507;-68
2022/06/20 06:29:52;;;;;;;1999.90;999.90;;;14.70;99.90;;;;;;5048274;28;20841;-68
2022/06/20 06:32:27;;;;;;;1999.90;999.90;;;14.70;99.90;;;;;;5051636;28;20485;-69
2022/06/20 06:35:01;;;;;;;1999.90;999.90;;;14.70;99.90;;;;;;5054181;28;20437;-68
2022/06/20 06:37:35;;;;;;;1999.90;999.90;;;14.70;99.90;;;;;;5054204;28;20925;-68
2022/06/20 06:40:10;;;;;;;1999.90;999.90;;;14.70;99.90;;;;;;5054250;28;20425;-68
2022/06/20 06:42:39;;;;;;;1999.90;999.90;;;14.70;99.90;;;;;;5052349;28;20523;-68
2022/06/20 06:45:07;;;;;;;1999.90;999.90;;;14.80;99.90;;;;;;5044947;28;20447;-68
2022/06/20 06:47:39;;;;;;;1999.90;999.90;;;14.90;99.90;;;;;;5054102;28;20507;-68
2022/06/20 06:50:21;;;;;;;1999.90;999.90;;;14.90;99.90;;;;;;5053855;28;20872;-68
2022/06/20 06:52:54;;;;;;;1999.90;999.90;;;14.90;99.90;;;;;;5052634;28;20466;-68
2022/06/20 06:55:28;;;;;;;1999.90;999.90;;;14.90;99.90;;;;;;5047818;28;20991;-68
2022/06/20 06:58:01;;;;;;;1999.90;999.90;;;14.80;99.90;;;;;;5048220;28;20438;-68
2022/06/20 07:00:33;;;;;;;1999.90;999.90;;;14.80;99.90;;;;;;5053447;28;20935;-68
2022/06/20 07:03:06;;;;;;;1999.90;999.90;;;14.70;99.90;;;;;;5053643;28;20431;-69
2022/06/20 07:05:35;;;;;;;1999.90;999.90;;;14.70;99.90;;;;;;5079341;22;20494;-67
2022/06/20 07:08:10;;;;;;;1999.90;999.90;;;14.70;99.90;;;;;;5093827;28;20453;-70
2022/06/20 07:10:44;;;;;;;1999.90;999.90;;;14.70;99.90;;;;;;5093750;28;20437;-71
2022/06/20 07:13:20;;;;;;;1999.90;999.90;;;14.60;99.90;;;;;;5094210;28;20468;-70
2022/06/20 07:15:49;;;;;;;1999.90;999.90;;;14.70;99.90;;;;;;5093730;28;20503;-70
2022/06/20 07:18:29;;;;;;;1999.90;999.90;;;14.70;99.90;;;;;;5091725;28;20529;-70
2022/06/20 07:20:55;;;;;;;1999.90;999.90;;;14.60;99.90;;;;;;5091342;28;20898;-70
2022/06/20 07:23:23;;;;;;;1999.90;999.90;;;14.40;99.90;;;;;;5092729;28;20460;-70
2022/06/20 07:25:52;;;;;;;1999.90;999.90;;;14.20;99.90;;;;;;5094034;28;20521;-71
2022/06/20 07:28:30;;;;;;;1999.90;999.90;;;14.20;99.90;;;;;;5093356;28;20456;-70
2022/06/20 07:31:03;;;;;;;1999.90;999.90;;;14.10;99.90;;;;;;5093523;28;20484;-72
2022/06/20 07:33:35;;;;;;;1999.90;999.90;;;14.20;99.90;;;;;;5091357;28;20979;-72
2022/06/20 07:36:08;;;;;;;1999.90;999.90;;;14.00;99.90;;;;;;5093583;28;20468;-72
2022/06/20 07:38:42;;;;;;;1999.90;999.90;;;14.00;99.90;;;;;;5093091;28;20448;-72
2022/06/20 07:41:14;;;;;;;1999.90;999.90;;;14.00;99.90;;;;;;5093671;28;20438;-72
2022/06/20 07:43:47;;;;;;;1999.90;999.90;;;13.90;99.90;;;;;;5092696;28;20457;-72
2022/06/20 07:46:17;;;;;;;1999.90;999.90;;;13.90;99.90;;;;;;5093570;28;20495;-73
2022/06/20 07:48:48;;;;;;;1999.90;999.90;;;14.00;99.90;;;;;;5094956;28;20476;-72
2022/06/20 07:51:17;;;;;;;1999.90;999.90;;;14.00;99.90;;;;;;5093712;28;20440;-72
2022/06/20 07:53:50;;;;;;;1999.90;999.90;;;13.90;99.90;;;;;;5093217;28;20514;-72
2022/06/20 07:56:20;;;;;;;1999.90;999.90;;;13.80;99.90;;;;;;5090136;28;20541;-73
2022/06/20 07:58:54;;;;;;;1999.90;999.90;;;13.70;99.90;;;;;;5093180;28;20454;-71
2022/06/20 08:01:30;;;;;;;1999.90;999.90;;;13.70;99.90;;;;;;5093118;28;20858;-73
2022/06/20 08:04:01;;;;;;;1999.90;999.90;;;13.70;99.90;;;;;;5093712;28;20424;-73
2022/06/20 08:06:33;;;;;;;1999.90;999.90;;;13.70;99.90;;;;;;5091608;28;20549;-72
2022/06/20 08:09:06;;;;;;;1999.90;999.90;;;13.70;99.90;;;;;;5092868;28;21012;-73
2022/06/20 08:11:42;;;;;;;1999.90;999.90;;;13.70;99.90;;;;;;5092645;28;20514;-72
2022/06/20 08:14:24;;;;;;;1999.90;999.90;;;13.70;99.90;;;;;;5093050;28;20464;-72
2022/06/20 08:16:55;;;;;;;1999.90;999.90;;;13.70;99.90;;;;;;5091135;28;20498;-72
2022/06/20 08:19:22;;;;;;;1999.90;999.90;;;13.70;99.90;;;;;;5090232;28;20436;-72
2022/06/20 08:21:57;;;;;;;1999.90;999.90;;;13.80;99.90;;;;;;5092477;28;20853;-73
2022/06/20 08:24:30;;;;;;;1999.90;999.90;;;13.90;99.90;;;;;;5093687;28;20477;-73
2022/06/20 08:27:03;;;;;;;1999.90;999.90;;;13.90;99.90;;;;;;5093777;28;20475;-73
2022/06/20 08:29:35;;;;;;;1999.90;999.90;;;14.00;99.90;;;;;;5092123;28;20460;-73
2022/06/20 08:32:16;;;;;;;1999.90;999.90;;;14.00;99.90;;;;;;5093239;28;20493;-73
2022/06/20 08:34:51;;;;;;;1999.90;999.90;;;14.00;99.90;;;;;;5093695;28;20433;-72
2022/06/20 08:37:25;;;;;;;1999.90;999.90;;;14.10;99.90;;;;;;5094408;28;20464;-72
2022/06/20 08:39:59;;;;;;;1999.90;999.90;;;14.00;99.90;;;;;;5093455;28;20424;-72
2022/06/20 08:42:48;;;;;;;1999.90;999.90;;;14.00;99.90;;;;;;5092610;28;21021;-73
2022/06/20 08:45:40;;;;;;;1999.90;999.90;;;14.00;99.90;;;;;;5093954;28;20436;-73
2022/06/20 08:48:44;;;;;;;1999.90;999.90;;;13.90;99.90;;;;;;5093238;28;20505;-73
2022/06/20 08:52:06;;;;;;;1999.90;999.90;;;13.90;99.90;;;;;;5092754;28;20440;-73
2022/06/20 08:55:08;;;;;;;1999.90;999.90;;;13.90;99.90;;;;;;5088792;28;20464;-72
2022/06/20 08:57:49;;;;;;;1999.90;999.90;;;13.80;99.90;;;;;;5092643;28;20547;-73
2022/06/20 09:00:19;;;;;;;1999.90;999.90;;;13.80;99.90;;;;;;5092049;28;20482;-72
2022/06/20 09:03:16;;;;;;;1999.90;999.90;;;13.70;99.90;;;;;;5091299;28;20429;-71
2022/06/20 09:06:04;;;;;;;1999.90;999.90;;;13.60;99.90;;;;;;5077702;28;20567;-74
2022/06/20 09:08:44;;;;;;;1999.90;999.90;;;13.50;99.90;;;;;;5092156;28;20956;-72
2022/06/20 09:11:43;;;;;;;1999.90;999.90;;;13.50;99.90;;;;;;5092255;28;20428;-72
2022/06/20 09:14:28;;;;;;;1999.90;999.90;;;13.40;99.90;;;;;;5080858;28;20939;-71
2022/06/20 09:17:08;;;;;;;1999.90;999.90;;;13.30;99.90;;;;;;5090641;28;20869;-70
2022/06/20 09:19:49;;;;;;;1999.90;999.90;;;13.40;99.90;;;;;;5091798;28;20498;-71
2022/06/20 09:22:29;;;;;;;1999.90;999.90;;;13.50;99.90;;;;;;5092638;28;20424;-71
2022/06/20 09:25:08;;;;;;;1999.90;999.90;;;13.50;99.90;;;;;;5091942;28;20503;-70
2022/06/20 09:27:46;;;;;;;1999.90;999.90;;;13.50;99.90;;;;;;5090555;28;20987;-71
2022/06/20 09:30:19;;;;;;;1999.90;999.90;;;13.50;99.90;;;;;;5091652;28;20440;-71
2022/06/20 09:33:19;;;;;;;1999.90;999.90;;;13.60;99.90;;;;;;5092634;28;20480;-72
2022/06/20 09:36:16;;;;;;;1999.90;999.90;;;13.60;99.90;;;;;;5092441;28;20988;-71
2022/06/20 09:38:53;;;;;;;1999.90;999.90;;;13.60;99.90;;;;;;5093859;28;20452;-70
2022/06/20 09:41:30;;;;;;;1999.90;999.90;;;13.70;99.90;;;;;;5095743;28;20442;-71
2022/06/20 09:44:10;;;;;;;1999.90;999.90;;;13.60;99.90;;;;;;5096076;28;20444;-70
2022/06/20 09:46:45;;;;;;;1999.90;999.90;;;13.80;99.90;;;;;;5095241;28;20459;-70
2022/06/20 09:49:19;;;;;;;1999.90;999.90;;;13.90;99.90;;;;;;5092386;28;20448;-68
2022/06/20 09:51:56;;;;;;;1999.90;999.90;;;14.00;99.90;;;;;;5096269;28;20444;-71
2022/06/20 09:54:30;;;;;;;1999.90;999.90;;;14.00;99.90;;;;;;5095955;28;20487;-71
2022/06/20 09:57:05;;;;;;;1999.90;999.90;;;14.00;99.90;;;;;;5095598;28;20465;-71
2022/06/20 09:59:37;;;;;;;1999.90;999.90;;;14.00;99.90;;;;;;5093686;28;20471;-70
2022/06/20 10:02:14;;;;;;;1999.90;999.90;;;13.90;99.90;;;;;;5095386;28;21017;-70
2022/06/20 10:04:50;;;;;;;1999.90;999.90;;;13.90;99.90;;;;;;5095811;28;20486;-71
2022/06/20 10:07:21;;;;;;;1999.90;999.90;;;13.90;99.90;;;;;;5095251;28;20524;-70
2022/06/20 10:09:55;;;;;;;1999.90;999.90;;;14.00;99.90;;;;;;5095484;28;20448;-71
2022/06/20 10:12:29;;;;;;;1999.90;999.90;;;14.00;99.90;;;;;;5091467;28;20464;-70
2022/06/20 10:15:05;;;;;;;1999.90;999.90;;;14.00;99.90;;;;;;5095182;28;20853;-71
2022/06/20 10:17:41;;;;;;;1999.90;999.90;;;14.00;99.90;;;;;;5094785;28;20470;-70
2022/06/20 10:20:21;;;;;;;1999.90;999.90;;;14.00;99.90;;;;;;5095340;28;21240;-71
2022/06/20 10:22:55;;;;;;;1999.90;999.90;;;14.00;99.90;;;;;;5091336;28;20513;-70
2022/06/20 10:25:55;;;;;;;1999.90;999.90;;;14.00;99.90;;;;;;5095155;28;20444;-70
2022/06/20 10:28:30;;;;;;;1999.90;999.90;;;13.90;99.90;;;;;;5095054;28;20433;-71
2022/06/20 10:31:08;;;;;;;1999.90;999.90;;;13.80;99.90;;;;;;5093582;28;20864;-70
2022/06/20 10:33:45;;;;;;;1999.90;999.90;;;13.70;99.90;;;;;;5094646;28;20536;-70
2022/06/20 10:36:18;;;;;;;1999.90;999.90;;;13.70;99.90;;;;;;5094626;28;20472;-71
2022/06/20 10:38:55;;;;;;;1999.90;999.90;;;13.80;99.90;;;;;;5094643;28;20490;-71
2022/06/20 10:41:28;;;;;;;1999.90;999.90;;;13.80;99.90;;;;;;5095071;28;20897;-70
2022/06/20 10:44:11;;;;;;;1999.90;999.90;;;13.90;99.90;;;;;;5093297;28;20513;-71
2022/06/20 10:46:42;;;;;;;1999.90;999.90;;;13.90;99.90;;;;;;5086195;28;20464;-70
2022/06/20 10:49:33;;;;;;;1999.90;999.90;;;14.10;99.90;;;;;;5094187;28;20444;-69
2022/06/20 10:52:18;;;;;;;1999.90;999.90;;;14.20;99.90;;;;;;5094372;28;20490;-70
2022/06/20 10:54:55;;;;;;;1999.90;999.90;;;14.20;99.90;;;;;;5093088;28;20527;-70
2022/06/20 10:57:32;;;;;;;1999.90;999.90;;;14.40;99.90;;;;;;5093915;28;20865;-70
2022/06/20 11:00:04;;;;;;;1999.90;999.90;;;14.40;99.90;;;;;;5093874;28;20455;-71
2022/06/20 11:03:01;;;;;;;1999.90;999.90;;;14.50;99.90;;;;;;5093977;28;20452;-71
2022/06/20 11:05:37;;;;;;;1999.90;999.90;;;14.60;99.90;;;;;;5093887;28;20458;-71
2022/06/20 11:08:15;;;;;;;1999.90;999.90;;;14.60;99.90;;;;;;5092331;28;20517;-70
2022/06/20 11:10:56;;;;;;;1999.90;999.90;;;14.80;99.90;;;;;;5085626;28;20811;-70
2022/06/20 11:13:29;;;;;;;1999.90;999.90;;;14.90;99.90;;;;;;5093708;28;20468;-71
2022/06/20 11:16:07;;;;;;;1999.90;999.90;;;15.00;99.90;;;;;;5092964;28;20525;-70
2022/06/20 11:18:48;;;;;;;1999.90;999.90;;;14.90;99.90;;;;;;5091512;28;20471;-70
2022/06/20 11:21:22;;;;;;;1999.90;999.90;;;14.90;99.90;;;;;;5092256;28;20494;-71
2022/06/20 11:24:03;;;;;;;1999.90;999.90;;;14.90;99.90;;;;;;5093438;28;20440;-71
2022/06/20 11:26:38;;;;;;;1999.90;999.90;;;15.00;99.90;;;;;;5093554;28;20472;-71
2022/06/20 11:29:33;;;;;;;1999.90;999.90;;;15.10;99.90;;;;;;5092020;28;20456;-71
2022/06/20 11:32:07;;;;;;;1999.90;999.90;;;15.30;99.90;;;;;;5088276;28;20441;-71
2022/06/20 11:35:06;;;;;;;1999.90;999.90;;;15.50;99.90;;;;;;5093288;28;20513;-71
2022/06/20 11:37:54;;;;;;;1999.90;999.90;;;15.60;99.90;;;;;;5086071;28;20944;-71
2022/06/20 11:40:31;;;;;;;1999.90;999.90;;;15.80;99.90;;;;;;5091333;28;20468;-71
2022/06/20 11:43:43;;;;;;;1999.90;999.90;;;15.90;99.90;;;;;;5093126;28;20448;-70
2022/06/20 11:46:23;;;;;;;1999.90;999.90;;;15.80;99.90;;;;;;5093144;28;20472;-71
2022/06/20 11:49:01;;;;;;;1999.90;999.90;;;15.90;99.90;;;;;;5093113;28;20433;-70
2022/06/20 11:51:38;;;;;;;1999.90;999.90;;;15.90;99.90;;;;;;5091279;28;20943;-71
2022/06/20 11:54:18;;;;;;;1999.90;999.90;;;15.90;99.90;;;;;;5092722;28;20476;-71
2022/06/20 11:56:49;;;;;;;1999.90;999.90;;;15.90;99.90;;;;;;5091800;28;20991;-70
2022/06/20 11:59:24;;;;;;;1999.90;999.90;;;15.90;99.90;;;;;;5092623;28;20904;-70
2022/06/20 12:02:01;;;;;;;1999.90;999.90;;;16.00;99.90;;;;;;5091417;28;20490;-70
2022/06/20 12:04:34;;;;;;;1999.90;999.90;;;16.00;99.90;;;;;;5092427;28;20920;-70
2022/06/20 12:07:07;;;;;;;1999.90;999.90;;;16.20;99.90;;;;;;5092423;28;20510;-70
2022/06/20 12:09:44;;;;;;;1999.90;999.90;;;16.30;99.90;;;;;;5092302;28;20969;-70
2022/06/20 12:12:33;;;;;;;1999.90;999.90;;;16.30;99.90;;;;;;5092583;28;20432;-71
2022/06/20 12:15:22;;;;;;;1999.90;999.90;;;16.20;99.90;;;;;;5091360;28;20537;-71
2022/06/20 12:17:56;;;;;;;1999.90;999.90;;;16.30;99.90;;;;;;5071679;28;20479;-70
2022/06/20 12:23:26;;;;;;;1999.90;999.90;;;16.60;99.90;;;;;;5072194;28;20409;-71
2022/06/20 12:26:00;;;;;;;1999.90;999.90;;;16.60;99.90;;;;;;5079305;28;20483;-69
2022/06/20 12:28:31;;;;;;;1999.90;999.90;;;16.60;99.90;;;;;;5092004;28;20436;-68
2022/06/20 12:31:11;;;;;;;1999.90;999.90;;;16.40;99.90;;;;;;5092279;28;20436;-71
2022/06/20 12:33:40;;;;;;;1999.90;999.90;;;16.40;99.90;;;;;;5092229;28;20480;-70
2022/06/20 12:36:18;;;;;;;1999.90;999.90;;;16.70;99.90;;;;;;5092232;28;20495;-71
2022/06/20 12:38:51;;;;;;;1999.90;999.90;;;17.20;99.90;;;;;;5089062;28;20505;-71
2022/06/20 12:41:22;;;;;;;1999.90;999.90;;;17.80;99.90;;;;;;5092664;28;20982;-71
2022/06/20 12:44:00;;;;;;;1999.90;999.90;;;18.30;99.90;;;;;;5093490;28;20498;-70
2022/06/20 12:46:51;;;;;;;1999.90;999.90;;;18.70;99.90;;;;;;5093147;28;20464;-70